sensor_id;sensor_type;location;lat;lon;timestamp;pressure;altitude;pressure_sealevel;temperature;humidity
22775;BME280;11554;51.106;3.684;2024-01-10T00:00:00;102991.95999999999;;;-5.14;100.0
22775;BME280;11554;51.106;3.684;2024-01-10T00:05:00;102989.98999999999;;;-5.20;100.0
22775;BME280;11554;51.106;3.684;2024-01-10T00:10:00;102981.26;;;-5.15;100.0
22775;BME280;11554;51.106;3.684;2024-01-10T00:15:00;102979.63;;;-5.17;100.0
22775;BME280;11554;51.106;3.684;2024-01-10T00:20:00;102976.62;;;-5.19;100.0
22775;BME280;11554;51.106;3.684;2024-01-10T00:25:00;102963.55;;;-5.26;100.0
22775;BME280;11554;51.106;3.684;2024-01-10T00:30:00;102964.56000000001;;;-5.22;100.0
22775;BME280;11554;51.106;3.684;2024-01-10T00:35:00;102957.28;;;-5.22;100.0
22775;BME280;11554;51.106;3.684;2024-01-10T00:40:00;102955.26999999999;;;-5.13;100.0
22775;BME280;11554;51.106;3.684;2024-01-10T00:45:00;102965.72000000002;;;-5.20;100.0
22775;BME280;11554;51.106;3.684;2024-01-10T00:50:00;102963.29000000001;;;-5.22;100.0
22775;BME280;11554;51.106;3.684;2024-01-10T00:55:00;102965.64000000001;;;-5.27;100.0
22775;BME280;11554;51.106;3.684;2024-01-10T01:00:00;102966.48;;;-5.34;100.0
22775;BME280;11554;51.106;3.684;2024-01-10T01:05:00;102961.15;;;-5.38;100.0
22775;BME280;11554;51.106;3.684;2024-01-10T01:10:00;102951.33;;;-5.50;100.0
22775;BME280;11554;51.106;3.684;2024-01-10T01:15:00;102954.7;;;-5.52;100.0
22775;BME280;11554;51.106;3.684;2024-01-10T01:20:00;102951.68000000001;;;-5.54;100.0
22775;BME280;11554;51.106;3.684;2024-01-10T01:25:00;102953.43000000001;;;-5.61;100.0
22775;BME280;11554;51.106;3.684;2024-01-10T01:30:00;102950.21999999999;;;-5.74;100.0
22775;BME280;11554;51.106;3.684;2024-01-10T01:35:00;102953.93999999999;;;-5.72;100.0
22775;BME280;11554;51.106;3.684;2024-01-10T01:40:00;102945.48;;;-5.75;100.0
22775;BME280;11554;51.106;3.684;2024-01-10T01:45:00;102947.53;;;-5.73;100.0
22775;BME280;11554;51.106;3.684;2024-01-10T01:50:00;102954.61;;;-5.84;100.0
22775;BME280;11554;51.106;3.684;2024-01-10T01:55:00;102959.5;;;-6.05;100.0
22775;BME280;11554;51.106;3.684;2024-01-10T02:00:00;102963.43999999999;;;-5.98;100.0
22775;BME280;11554;51.106;3.684;2024-01-10T02:05:00;102952.70000000001;;;-5.98;100.0
22775;BME280;11554;51.106;3.684;2024-01-10T02:10:00;102954.17;;;-5.94;100.0
22775;BME280;11554;51.106;3.684;2024-01-10T02:15:00;102956.21;;;-5.99;100.0
22775;BME280;11554;51.106;3.684;2024-01-10T02:20:08;102950.78000000001;;;-6.11;100.0
22775;BME280;11554;51.106;3.684;2024-01-10T02:25:00;102942.68999999999;;;-6.19;100.0
22775;BME280;11554;51.106;3.684;2024-01-10T02:30:00;102948.39;;;-6.16;100.0
22775;BME280;11554;51.106;3.684;2024-01-10T02:35:00;102942.04;;;-6.15;100.0
22775;BME280;11554;51.106;3.684;2024-01-10T02:40:00;102936.77;;;-6.26;100.0
22775;BME280;11554;51.106;3.684;2024-01-10T02:45:00;102936.38;;;-6.35;100.0
22775;BME280;11554;51.106;3.684;2024-01-10T02:50:00;102934.73;;;-6.30;100.0
22775;BME280;11554;51.106;3.684;2024-01-10T02:55:00;102935.93000000001;;;-6.36;100.0
22775;BME280;11554;51.106;3.684;2024-01-10T03:00:00;102931.23000000001;;;-6.40;100.0
22775;BME280;11554;51.106;3.684;2024-01-10T03:05:00;102923.79000000001;;;-6.33;100.0
22775;BME280;11554;51.106;3.684;2024-01-10T03:10:00;102918.76;;;-6.34;100.0
22775;BME280;11554;51.106;3.684;2024-01-10T03:15:00;102912.98;;;-6.39;100.0
22775;BME280;11554;51.106;3.684;2024-01-10T03:20:00;102900.55;;;-6.30;100.0
22775;BME280;11554;51.106;3.684;2024-01-10T03:25:00;102896.68999999999;;;-6.19;100.0
22775;BME280;11554;51.106;3.684;2024-01-10T03:30:00;102895.51;;;-6.10;100.0
22775;BME280;11554;51.106;3.684;2024-01-10T03:35:00;102892.68;;;-6.16;100.0
22775;BME280;11554;51.106;3.684;2024-01-10T03:40:00;102889.36000000002;;;-6.15;100.0
22775;BME280;11554;51.106;3.684;2024-01-10T03:45:00;102892.53000000001;;;-6.17;100.0
22775;BME280;11554;51.106;3.684;2024-01-10T03:50:00;102884.41;;;-6.25;100.0
22775;BME280;11554;51.106;3.684;2024-01-10T03:55:00;102887.15;;;-6.26;100.0
22775;BME280;11554;51.106;3.684;2024-01-10T04:00:00;102877.59000000001;;;-6.08;100.0
22775;BME280;11554;51.106;3.684;2024-01-10T04:05:00;102876.32;;;-5.98;100.0
22775;BME280;11554;51.106;3.684;2024-01-10T04:10:00;102871.85999999999;;;-6.08;100.0
22775;BME280;11554;51.106;3.684;2024-01-10T04:15:00;102869.09000000001;;;-6.03;100.0
22775;BME280;11554;51.106;3.684;2024-01-10T04:20:00;102867.59;;;-6.10;100.0
22775;BME280;11554;51.106;3.684;2024-01-10T04:25:00;102870.4;;;-5.96;100.0
22775;BME280;11554;51.106;3.684;2024-01-10T04:30:00;102865.39;;;-6.02;100.0
22775;BME280;11554;51.106;3.684;2024-01-10T04:35:00;102861.29000000001;;;-6.09;100.0
22775;BME280;11554;51.106;3.684;2024-01-10T04:40:00;102853.36;;;-6.00;100.0
22775;BME280;11554;51.106;3.684;2024-01-10T04:45:00;102849.78000000001;;;-6.01;100.0
22775;BME280;11554;51.106;3.684;2024-01-10T04:50:00;102848.79000000001;;;-6.16;100.0
22775;BME280;11554;51.106;3.684;2024-01-10T04:55:00;102847.38;;;-6.27;100.0
22775;BME280;11554;51.106;3.684;2024-01-10T05:00:01;102845.63;;;-6.29;100.0
22775;BME280;11554;51.106;3.684;2024-01-10T05:05:00;102851.2;;;-6.40;100.0
22775;BME280;11554;51.106;3.684;2024-01-10T05:10:00;102844.68999999999;;;-6.44;100.0
22775;BME280;11554;51.106;3.684;2024-01-10T05:15:00;102848.85999999999;;;-6.42;100.0
22775;BME280;11554;51.106;3.684;2024-01-10T05:20:00;102842.68;;;-6.39;100.0
22775;BME280;11554;51.106;3.684;2024-01-10T05:25:00;102841.02;;;-6.43;100.0
22775;BME280;11554;51.106;3.684;2024-01-10T05:30:00;102842.5;;;-6.47;100.0
22775;BME280;11554;51.106;3.684;2024-01-10T05:35:00;102838.87999999999;;;-6.50;100.0
22775;BME280;11554;51.106;3.684;2024-01-10T05:40:00;102836.70999999999;;;-6.45;100.0
22775;BME280;11554;51.106;3.684;2024-01-10T05:45:00;102831.81999999999;;;-6.44;100.0
22775;BME280;11554;51.106;3.684;2024-01-10T05:50:00;102833.14;;;-6.46;100.0
22775;BME280;11554;51.106;3.684;2024-01-10T05:55:00;102831.21;;;-6.47;100.0
22775;BME280;11554;51.106;3.684;2024-01-10T06:00:00;102832.5;;;-6.49;100.0
22775;BME280;11554;51.106;3.684;2024-01-10T06:05:00;102830.93;;;-6.41;100.0
22775;BME280;11554;51.106;3.684;2024-01-10T06:10:00;102834.09;;;-6.42;100.0
22775;BME280;11554;51.106;3.684;2024-01-10T06:15:00;102837.3;;;-6.52;100.0
22775;BME280;11554;51.106;3.684;2024-01-10T06:20:00;102843.98000000001;;;-6.52;100.0
22775;BME280;11554;51.106;3.684;2024-01-10T06:25:00;102849.76999999999;;;-6.50;100.0
22775;BME280;11554;51.106;3.684;2024-01-10T06:30:00;102856.08;;;-6.53;100.0
22775;BME280;11554;51.106;3.684;2024-01-10T06:35:00;102849.45;;;-6.51;100.0
22775;BME280;11554;51.106;3.684;2024-01-10T06:40:00;102847.29999999999;;;-6.46;100.0
22775;BME280;11554;51.106;3.684;2024-01-10T06:45:00;102845.39;;;-6.43;100.0
22775;BME280;11554;51.106;3.684;2024-01-10T06:50:00;102841.46;;;-6.53;100.0
22775;BME280;11554;51.106;3.684;2024-01-10T06:55:00;102839.34;;;-6.56;100.0
22775;BME280;11554;51.106;3.684;2024-01-10T07:00:00;102840.5;;;-6.60;100.0
22775;BME280;11554;51.106;3.684;2024-01-10T07:05:00;102843.80000000002;;;-6.60;100.0
22775;BME280;11554;51.106;3.684;2024-01-10T07:10:00;102835.22;;;-6.60;100.0
22775;BME280;11554;51.106;3.684;2024-01-10T07:15:00;102845.0;;;-6.58;100.0
22775;BME280;11554;51.106;3.684;2024-01-10T07:20:00;102849.37;;;-6.70;100.0
22775;BME280;11554;51.106;3.684;2024-01-10T07:25:00;102851.05;;;-6.77;100.0
22775;BME280;11554;51.106;3.684;2024-01-10T07:30:00;102854.74999999999;;;-6.73;100.0
22775;BME280;11554;51.106;3.684;2024-01-10T07:35:00;102851.93999999999;;;-6.67;100.0
22775;BME280;11554;51.106;3.684;2024-01-10T07:40:00;102853.82999999999;;;-6.76;100.0
22775;BME280;11554;51.106;3.684;2024-01-10T07:45:00;102847.27;;;-6.91;100.0
22775;BME280;11554;51.106;3.684;2024-01-10T07:50:00;102845.84999999999;;;-7.01;100.0
22775;BME280;11554;51.106;3.684;2024-01-10T07:55:00;102850.27;;;-7.06;100.0
22775;BME280;11554;51.106;3.684;2024-01-10T08:00:00;102846.61000000002;;;-7.13;100.0
22775;BME280;11554;51.106;3.684;2024-01-10T08:05:00;102848.19;;;-7.12;100.0
22775;BME280;11554;51.106;3.684;2024-01-10T08:10:00;102854.81;;;-7.17;100.0
22775;BME280;11554;51.106;3.684;2024-01-10T08:15:00;102861.1;;;-7.23;100.0
22775;BME280;11554;51.106;3.684;2024-01-10T08:20:00;102855.53;;;-7.05;100.0
22775;BME280;11554;51.106;3.684;2024-01-10T08:25:00;102862.51;;;-6.74;100.0
22775;BME280;11554;51.106;3.684;2024-01-10T08:30:00;102869.95999999999;;;-6.51;100.0
22775;BME280;11554;51.106;3.684;2024-01-10T08:35:00;102867.32999999999;;;-6.40;100.0
22775;BME280;11554;51.106;3.684;2024-01-10T08:40:00;102872.40999999999;;;-6.23;100.0
22775;BME280;11554;51.106;3.684;2024-01-10T08:45:00;102855.35;;;-6.19;100.0
22775;BME280;11554;51.106;3.684;2024-01-10T08:50:00;102863.94;;;-6.07;100.0
22775;BME280;11554;51.106;3.684;2024-01-10T08:55:00;102867.37000000001;;;-5.91;100.0
22775;BME280;11554;51.106;3.684;2024-01-10T09:00:00;102858.78;;;-5.79;100.0
22775;BME280;11554;51.106;3.684;2024-01-10T09:05:00;102860.71999999999;;;-5.67;100.0
22775;BME280;11554;51.106;3.684;2024-01-10T09:10:00;102865.06;;;-5.62;100.0
22775;BME280;11554;51.106;3.684;2024-01-10T09:15:00;102864.06999999999;;;-5.57;100.0
22775;BME280;11554;51.106;3.684;2024-01-10T09:20:00;102857.25;;;-5.50;100.0
22775;BME280;11554;51.106;3.684;2024-01-10T09:25:00;102858.08;;;-5.43;100.0
22775;BME280;11554;51.106;3.684;2024-01-10T09:30:00;102870.41999999998;;;-5.33;100.0
22775;BME280;11554;51.106;3.684;2024-01-10T09:35:00;102868.31999999999;;;-5.24;100.0
22775;BME280;11554;51.106;3.684;2024-01-10T09:40:00;102865.58;;;-5.15;100.0
22775;BME280;11554;51.106;3.684;2024-01-10T09:45:00;102865.3;;;-5.07;100.0
22775;BME280;11554;51.106;3.684;2024-01-10T09:50:00;102862.62;;;-5.02;100.0
22775;BME280;11554;51.106;3.684;2024-01-10T09:55:00;102863.06;;;-4.87;100.0
22775;BME280;11554;51.106;3.684;2024-01-10T10:00:00;102861.77;;;-4.71;100.0
22775;BME280;11554;51.106;3.684;2024-01-10T10:05:01;102864.92000000001;;;-4.58;100.0
22775;BME280;11554;51.106;3.684;2024-01-10T10:10:00;102861.54;;;-4.44;100.0
22775;BME280;11554;51.106;3.684;2024-01-10T10:15:01;102866.46;;;-4.29;100.0
22775;BME280;11554;51.106;3.684;2024-01-10T10:20:02;102860.03;;;-4.13;100.0
22775;BME280;11554;51.106;3.684;2024-01-10T10:25:00;102861.28000000001;;;-3.96;100.0
22775;BME280;11554;51.106;3.684;2024-01-10T10:30:00;102857.21;;;-3.81;100.0
22775;BME280;11554;51.106;3.684;2024-01-10T10:35:00;102854.2;;;-3.67;100.0
22775;BME280;11554;51.106;3.684;2024-01-10T10:40:00;102854.90999999999;;;-3.47;100.0
22775;BME280;11554;51.106;3.684;2024-01-10T10:45:02;102852.20999999999;;;-3.28;100.0
22775;BME280;11554;51.106;3.684;2024-01-10T10:50:00;102846.35;;;-3.23;100.0
22775;BME280;11554;51.106;3.684;2024-01-10T10:55:00;102856.93000000001;;;-3.07;100.0
22775;BME280;11554;51.106;3.684;2024-01-10T11:00:00;102854.54999999999;;;-2.90;100.0
22775;BME280;11554;51.106;3.684;2024-01-10T11:05:00;102848.57999999999;;;-2.78;100.0
22775;BME280;11554;51.106;3.684;2024-01-10T11:10:00;102839.23;;;-2.62;100.0
22775;BME280;11554;51.106;3.684;2024-01-10T11:15:05;102833.58;;;-2.55;100.0
22775;BME280;11554;51.106;3.684;2024-01-10T11:20:05;102826.56;;;-2.52;100.0
22775;BME280;11554;51.106;3.684;2024-01-10T11:25:00;102820.91;;;-2.27;100.0
22775;BME280;11554;51.106;3.684;2024-01-10T11:30:00;102816.06;;;-2.20;100.0
22775;BME280;11554;51.106;3.684;2024-01-10T11:35:02;102816.43999999999;;;-2.08;100.0
22775;BME280;11554;51.106;3.684;2024-01-10T11:40:00;102809.18999999999;;;-2.00;99.19
22775;BME280;11554;51.106;3.684;2024-01-10T11:45:00;102805.58000000002;;;-1.66;100.0
22775;BME280;11554;51.106;3.684;2024-01-10T11:50:01;102794.82;;;-1.50;95.85
22775;BME280;11554;51.106;3.684;2024-01-10T11:55:00;102791.48;;;-1.45;96.17
22775;BME280;11554;51.106;3.684;2024-01-10T12:00:00;102793.12;;;-1.34;95.39
22775;BME280;11554;51.106;3.684;2024-01-10T12:05:00;102784.89;;;-1.32;88.44
22775;BME280;11554;51.106;3.684;2024-01-10T12:10:00;102771.12;;;-1.15;90.34
22775;BME280;11554;51.106;3.684;2024-01-10T12:15:00;102771.06000000001;;;-1.21;86.79
22775;BME280;11554;51.106;3.684;2024-01-10T12:20:00;102763.79;;;-1.24;84.54
22775;BME280;11554;51.106;3.684;2024-01-10T12:25:04;102763.57;;;-1.35;87.85
22775;BME280;11554;51.106;3.684;2024-01-10T12:30:00;102763.70999999999;;;-0.97;89.56
22775;BME280;11554;51.106;3.684;2024-01-10T12:35:01;102751.56;;;-1.04;85.3
22775;BME280;11554;51.106;3.684;2024-01-10T12:40:00;102751.30999999998;;;-0.90;84.49
22775;BME280;11554;51.106;3.684;2024-01-10T12:45:00;102743.43;;;-0.78;80.17
22775;BME280;11554;51.106;3.684;2024-01-10T12:50:00;102739.98999999999;;;-0.69;81.71
22775;BME280;11554;51.106;3.684;2024-01-10T12:55:00;102736.62;;;-0.69;80.59
22775;BME280;11554;51.106;3.684;2024-01-10T13:00:00;102727.33;;;-0.45;80.8
22775;BME280;11554;51.106;3.684;2024-01-10T13:05:00;102729.0;;;-0.55;77.39
22775;BME280;11554;51.106;3.684;2024-01-10T13:10:00;102732.3;;;-0.67;77.24
22775;BME280;11554;51.106;3.684;2024-01-10T13:15:00;102727.57999999999;;;-0.58;79.16
22775;BME280;11554;51.106;3.684;2024-01-10T13:20:00;102736.89;;;-0.50;76.76
22775;BME280;11554;51.106;3.684;2024-01-10T13:25:00;102741.94;;;-0.54;75.02
22775;BME280;11554;51.106;3.684;2024-01-10T13:30:00;102737.38;;;-0.45;77.59
22775;BME280;11554;51.106;3.684;2024-01-10T13:35:00;102744.53000000001;;;-0.44;77.14
22775;BME280;11554;51.106;3.684;2024-01-10T13:40:00;102739.58;;;-0.32;78.66
22775;BME280;11554;51.106;3.684;2024-01-10T13:45:00;102738.51;;;-0.34;78.33
22775;BME280;11554;51.106;3.684;2024-01-10T13:50:00;102741.31999999999;;;-0.25;81.31
22775;BME280;11554;51.106;3.684;2024-01-10T13:55:00;102743.20999999999;;;-0.49;79.23
22775;BME280;11554;51.106;3.684;2024-01-10T14:00:00;102739.7;;;-0.53;75.54
22775;BME280;11554;51.106;3.684;2024-01-10T14:05:00;102735.93000000001;;;-0.44;75.38
22775;BME280;11554;51.106;3.684;2024-01-10T14:10:00;102740.7;;;-0.43;80.21
22775;BME280;11554;51.106;3.684;2024-01-10T14:15:00;102740.34;;;-0.41;86.05
22775;BME280;11554;51.106;3.684;2024-01-10T14:20:00;102730.31000000001;;;-0.44;84.48
22775;BME280;11554;51.106;3.684;2024-01-10T14:25:00;102719.63;;;-0.49;85.38
22775;BME280;11554;51.106;3.684;2024-01-10T14:30:00;102732.32;;;-0.58;87.46
22775;BME280;11554;51.106;3.684;2024-01-10T14:35:00;102744.41999999998;;;-0.59;88.28
22775;BME280;11554;51.106;3.684;2024-01-10T14:40:00;102746.88;;;-0.58;89.41
22775;BME280;11554;51.106;3.684;2024-01-10T14:45:00;102750.17;;;-0.54;91.27
22775;BME280;11554;51.106;3.684;2024-01-10T14:50:00;102750.77000000002;;;-0.58;88.51
22775;BME280;11554;51.106;3.684;2024-01-10T14:55:00;102756.88;;;-0.59;89.08
22775;BME280;11554;51.106;3.684;2024-01-10T15:00:00;102760.3;;;-0.63;89.48
22775;BME280;11554;51.106;3.684;2024-01-10T15:05:00;102754.44;;;-0.73;86.62
22775;BME280;11554;51.106;3.684;2024-01-10T15:10:00;102757.65;;;-0.85;87.62
22775;BME280;11554;51.106;3.684;2024-01-10T15:15:00;102767.19;;;-0.94;89.21
22775;BME280;11554;51.106;3.684;2024-01-10T15:20:00;102773.38;;;-1.03;89.19
22775;BME280;11554;51.106;3.684;2024-01-10T15:25:00;102777.06000000001;;;-1.12;91.07
22775;BME280;11554;51.106;3.684;2024-01-10T15:30:00;102782.98;;;-1.20;92.95
22775;BME280;11554;51.106;3.684;2024-01-10T15:35:00;102784.20000000001;;;-1.26;93.08
22775;BME280;11554;51.106;3.684;2024-01-10T15:40:00;102787.49;;;-1.39;96.63
22775;BME280;11554;51.106;3.684;2024-01-10T15:45:00;102792.11;;;-1.51;99.93
22775;BME280;11554;51.106;3.684;2024-01-10T15:50:00;102799.73;;;-1.56;100.0
22775;BME280;11554;51.106;3.684;2024-01-10T15:55:00;102810.70999999999;;;-1.67;100.0
22775;BME280;11554;51.106;3.684;2024-01-10T16:00:00;102814.00000000001;;;-1.80;100.0
22775;BME280;11554;51.106;3.684;2024-01-10T16:05:00;102823.48999999999;;;-1.86;100.0
22775;BME280;11554;51.106;3.684;2024-01-10T16:10:00;102827.28;;;-1.96;100.0
22775;BME280;11554;51.106;3.684;2024-01-10T16:15:00;102829.5;;;-2.03;100.0
22775;BME280;11554;51.106;3.684;2024-01-10T16:20:00;102826.50000000001;;;-2.13;100.0
22775;BME280;11554;51.106;3.684;2024-01-10T16:25:00;102833.81;;;-2.19;100.0
22775;BME280;11554;51.106;3.684;2024-01-10T16:30:00;102831.18;;;-2.23;100.0
22775;BME280;11554;51.106;3.684;2024-01-10T16:35:00;102828.7;;;-2.29;100.0
22775;BME280;11554;51.106;3.684;2024-01-10T16:40:00;102837.71999999999;;;-2.35;100.0
22775;BME280;11554;51.106;3.684;2024-01-10T16:45:00;102837.66;;;-2.38;100.0
22775;BME280;11554;51.106;3.684;2024-01-10T16:50:02;102838.76000000001;;;-2.46;100.0
22775;BME280;11554;51.106;3.684;2024-01-10T16:55:00;102842.40999999999;;;-2.53;100.0
22775;BME280;11554;51.106;3.684;2024-01-10T17:00:00;102847.25000000001;;;-2.58;100.0
22775;BME280;11554;51.106;3.684;2024-01-10T17:05:00;102851.07;;;-2.68;100.0
22775;BME280;11554;51.106;3.684;2024-01-10T17:10:00;102852.04000000001;;;-2.68;100.0
22775;BME280;11554;51.106;3.684;2024-01-10T17:15:00;102851.56999999999;;;-2.66;100.0
22775;BME280;11554;51.106;3.684;2024-01-10T17:20:00;102859.18;;;-2.79;100.0
22775;BME280;11554;51.106;3.684;2024-01-10T17:25:00;102861.17;;;-2.94;100.0
22775;BME280;11554;51.106;3.684;2024-01-10T17:30:00;102866.78;;;-2.87;100.0
22775;BME280;11554;51.106;3.684;2024-01-10T17:35:00;102872.40999999999;;;-2.90;100.0
22775;BME280;11554;51.106;3.684;2024-01-10T17:40:00;102879.63;;;-2.99;100.0
22775;BME280;11554;51.106;3.684;2024-01-10T17:45:00;102886.25;;;-3.01;100.0
22775;BME280;11554;51.106;3.684;2024-01-10T17:50:00;102886.26999999999;;;-3.10;100.0
22775;BME280;11554;51.106;3.684;2024-01-10T17:55:00;102894.40999999999;;;-3.16;100.0
22775;BME280;11554;51.106;3.684;2024-01-10T18:00:00;102891.91;;;-3.20;100.0
22775;BME280;11554;51.106;3.684;2024-01-10T18:05:00;102896.75;;;-3.25;100.0
22775;BME280;11554;51.106;3.684;2024-01-10T18:10:00;102909.17;;;-3.29;100.0
22775;BME280;11554;51.106;3.684;2024-01-10T18:15:00;102918.09000000001;;;-3.27;100.0
22775;BME280;11554;51.106;3.684;2024-01-10T18:20:00;102916.64000000001;;;-3.37;100.0
22775;BME280;11554;51.106;3.684;2024-01-10T18:25:00;102915.65000000001;;;-3.26;100.0
22775;BME280;11554;51.106;3.684;2024-01-10T18:30:00;102925.07;;;-3.36;100.0
22775;BME280;11554;51.106;3.684;2024-01-10T18:35:00;102932.65;;;-3.25;100.0
22775;BME280;11554;51.106;3.684;2024-01-10T18:40:00;102941.36000000002;;;-3.37;100.0
22775;BME280;11554;51.106;3.684;2024-01-10T18:45:00;102944.48;;;-3.46;100.0
22775;BME280;11554;51.106;3.684;2024-01-10T18:50:00;102948.21999999999;;;-3.49;100.0
22775;BME280;11554;51.106;3.684;2024-01-10T18:55:00;102957.21;;;-3.28;100.0
22775;BME280;11554;51.106;3.684;2024-01-10T19:00:00;102962.77;;;-3.28;100.0
22775;BME280;11554;51.106;3.684;2024-01-10T19:05:00;102965.79999999999;;;-3.37;100.0
22775;BME280;11554;51.106;3.684;2024-01-10T19:10:00;102966.94;;;-3.34;100.0
22775;BME280;11554;51.106;3.684;2024-01-10T19:15:00;102968.18000000001;;;-3.38;100.0
22775;BME280;11554;51.106;3.684;2024-01-10T19:20:00;102978.73999999999;;;-3.29;100.0
22775;BME280;11554;51.106;3.684;2024-01-10T19:25:00;102990.45000000001;;;-3.45;100.0
22775;BME280;11554;51.106;3.684;2024-01-10T19:30:00;102995.63;;;-3.51;100.0
22775;BME280;11554;51.106;3.684;2024-01-10T19:35:00;102991.00000000001;;;-3.50;100.0
22775;BME280;11554;51.106;3.684;2024-01-10T19:40:00;102993.06999999999;;;-3.51;100.0
22775;BME280;11554;51.106;3.684;2024-01-10T19:45:00;103000.51000000001;;;-3.60;100.0
22775;BME280;11554;51.106;3.684;2024-01-10T19:50:00;103010.83000000002;;;-3.64;100.0
22775;BME280;11554;51.106;3.684;2024-01-10T19:55:00;103014.81000000001;;;-3.75;100.0
22775;BME280;11554;51.106;3.684;2024-01-10T20:00:00;103017.02;;;-3.70;100.0
22775;BME280;11554;51.106;3.684;2024-01-10T20:05:00;103022.66;;;-3.67;100.0
22775;BME280;11554;51.106;3.684;2024-01-10T20:10:00;103022.25000000001;;;-3.72;100.0
22775;BME280;11554;51.106;3.684;2024-01-10T20:15:00;103021.57999999999;;;-3.61;100.0
22775;BME280;11554;51.106;3.684;2024-01-10T20:20:00;103027.53;;;-3.72;100.0
22775;BME280;11554;51.106;3.684;2024-01-10T20:25:00;103024.16;;;-3.66;100.0
22775;BME280;11554;51.106;3.684;2024-01-10T20:30:00;103023.20999999999;;;-3.72;100.0
22775;BME280;11554;51.106;3.684;2024-01-10T20:35:00;103030.90999999999;;;-3.76;100.0
22775;BME280;11554;51.106;3.684;2024-01-10T20:40:00;103032.39000000001;;;-3.77;100.0
22775;BME280;11554;51.106;3.684;2024-01-10T20:45:00;103032.32;;;-3.75;100.0
22775;BME280;11554;51.106;3.684;2024-01-10T20:50:00;103031.88;;;-3.75;100.0
22775;BME280;11554;51.106;3.684;2024-01-10T20:55:00;103036.23;;;-3.83;100.0
22775;BME280;11554;51.106;3.684;2024-01-10T21:00:00;103037.56000000001;;;-3.84;100.0
22775;BME280;11554;51.106;3.684;2024-01-10T21:05:00;103035.58;;;-3.84;100.0
22775;BME280;11554;51.106;3.684;2024-01-10T21:10:00;103039.38;;;-3.90;100.0
22775;BME280;11554;51.106;3.684;2024-01-10T21:15:00;103041.41;;;-3.92;100.0
22775;BME280;11554;51.106;3.684;2024-01-10T21:20:00;103038.00000000001;;;-4.00;100.0
22775;BME280;11554;51.106;3.684;2024-01-10T21:25:00;103041.67;;;-3.96;100.0
22775;BME280;11554;51.106;3.684;2024-01-10T21:30:00;103048.68;;;-4.06;100.0
22775;BME280;11554;51.106;3.684;2024-01-10T21:35:00;103047.16;;;-4.12;100.0
22775;BME280;11554;51.106;3.684;2024-01-10T21:40:00;103046.56;;;-4.06;100.0
22775;BME280;11554;51.106;3.684;2024-01-10T21:45:00;103049.63;;;-4.21;100.0
22775;BME280;11554;51.106;3.684;2024-01-10T21:50:00;103053.67000000001;;;-4.19;100.0
22775;BME280;11554;51.106;3.684;2024-01-10T21:55:00;103065.86;;;-4.27;100.0
22775;BME280;11554;51.106;3.684;2024-01-10T22:00:00;103075.68000000001;;;-4.31;100.0
22775;BME280;11554;51.106;3.684;2024-01-10T22:05:00;103093.20999999999;;;-4.40;100.0
22775;BME280;11554;51.106;3.684;2024-01-10T22:10:00;103102.98;;;-4.52;100.0
22775;BME280;11554;51.106;3.684;2024-01-10T22:15:00;103099.17;;;-4.56;100.0
22775;BME280;11554;51.106;3.684;2024-01-10T22:20:00;103097.45;;;-4.60;100.0
22775;BME280;11554;51.106;3.684;2024-01-10T22:25:00;103100.93;;;-4.56;100.0
22775;BME280;11554;51.106;3.684;2024-01-10T22:30:00;103107.14;;;-4.69;100.0
22775;BME280;11554;51.106;3.684;2024-01-10T22:35:00;103102.22000000002;;;-4.81;100.0
22775;BME280;11554;51.106;3.684;2024-01-10T22:40:00;103116.31;;;-4.83;100.0
22775;BME280;11554;51.106;3.684;2024-01-10T22:45:00;103114.67;;;-4.82;100.0
22775;BME280;11554;51.106;3.684;2024-01-10T22:50:00;103121.91;;;-4.76;100.0
22775;BME280;11554;51.106;3.684;2024-01-10T22:55:00;103122.68999999999;;;-4.75;100.0
22775;BME280;11554;51.106;3.684;2024-01-10T23:00:00;103123.36;;;-4.83;100.0
22775;BME280;11554;51.106;3.684;2024-01-10T23:05:00;103127.74999999999;;;-5.06;100.0
22775;BME280;11554;51.106;3.684;2024-01-10T23:10:00;103130.37;;;-5.03;100.0
22775;BME280;11554;51.106;3.684;2024-01-10T23:15:00;103132.17;;;-5.06;100.0
22775;BME280;11554;51.106;3.684;2024-01-10T23:20:00;103127.19;;;-4.88;100.0
22775;BME280;11554;51.106;3.684;2024-01-10T23:25:00;103135.5;;;-4.87;100.0
22775;BME280;11554;51.106;3.684;2024-01-10T23:30:00;103143.14;;;-5.02;100.0
22775;BME280;11554;51.106;3.684;2024-01-10T23:35:00;103138.59;;;-5.13;100.0
22775;BME280;11554;51.106;3.684;2024-01-10T23:40:00;103147.77999999998;;;-5.20;100.0
22775;BME280;11554;51.106;3.684;2024-01-10T23:45:00;103139.05;;;-5.25;100.0
22775;BME280;11554;51.106;3.684;2024-01-10T23:50:00;103136.47;;;-5.22;100.0
22775;BME280;11554;51.106;3.684;2024-01-10T23:55:00;103141.48;;;-5.25;100.0
